John R Operle — WDB8611 — position and weather

sailwx.info

Track history (hours):
 
Tides and Currents Weather Stations Pressure Air Temp Water Temp Dewpoint Dewpoint Depression Visibility Wind Speed Wind Dir Waves Ship Positions

John R Operle

Owner: INGRAM BARGE COMPANY, Nashville, TN. More information available from US FCC via Universal Licensing System and Coast Guard Vessel Documentation Center.

Last reported at 2016-Mar-04 11:29 UTC. Time now 2016-May-27 12:13 UTC.
Position N 32°46' W 091°09'.
Warning: this ship's position is months out of date.

Length 36 m; draft 3.6 m.

Type: Ship (hazmat cat B). MMSI: 366961510.

Date/timePositionNaut miles runAvg speedWind from/ knotsBaromVisibWave heightAir tempDewpointWater temp
2016-Mar-04 11:29N 32°46' W 091°09'6 3.0
2016-Mar-04 09:30N 32°43' W 091°03'3 2.5
2016-Mar-04 08:13N 32°41' W 091°06'2 3.8
2016-Mar-04 07:33N 32°40' W 091°08'3 3.3
2016-Mar-04 06:33N 32°36' W 091°09'3 3.4
2016-Mar-04 05:33N 32°34' W 091°06'4 4.2
2016-Mar-04 04:33N 32°30' W 091°07'4 3.6
2016-Mar-04 03:33N 32°27' W 091°04'4 3.7
2016-Mar-04 02:33N 32°25' W 091°00'4 3.6
2016-Mar-04 01:33N 32°22' W 091°00'4 3.9
2016-Mar-04 00:33N 32°21' W 090°56'3 2.8
2016-Mar-03 23:33N 32°18' W 090°55'3 3.4
2016-Mar-03 22:33N 32°16' W 090°58'4 3.9
2016-Mar-03 21:33N 32°12' W 090°59'4 3.6
2016-Mar-03 20:33N 32°08' W 091°00'4 3.2
2016-Mar-03 19:12N 32°08' W 091°05'2 2.9
2016-Mar-03 18:33N 32°06' W 091°06'4 3.9
2016-Mar-03 17:33N 32°03' W 091°04'8 3.9
2016-Mar-03 15:27N 31°58' W 091°11'  
2016-Feb-27 00:15N 32°07' W 091°01'6 7.6
2016-Feb-26 23:31N 32°13' W 090°59'7 7.1
2016-Feb-26 22:33N 32°18' W 090°55'7 6.6
2016-Feb-26 21:33N 32°24' W 090°59'7 6.9
2016-Feb-26 20:33N 32°28' W 091°06'7 6.6
2016-Feb-26 19:33N 32°34' W 091°07'  
Track history (hours):
 
Tides and Currents Weather Stations Pressure Air Temp Water Temp Dewpoint Dewpoint Depression Visibility Wind Speed Wind Dir Waves Ship Positions

John R Operle

Owner: INGRAM BARGE COMPANY, Nashville, TN. More information available from US FCC via Universal Licensing System and Coast Guard Vessel Documentation Center.

Last reported at 2016-Mar-04 11:29 UTC. Time now 2016-May-27 12:13 UTC.
Position N 32°46' W 091°09'.
Warning: this ship's position is months out of date.

Length 36 m; draft 3.6 m.

Type: Ship (hazmat cat B). MMSI: 366961510.

Date/timePositionNaut miles runAvg speedWind from/ knotsBaromVisibWave heightAir tempDewpointWater temp
2016-Mar-04 11:29N 32°46' W 091°09'6 3.0
2016-Mar-04 09:30N 32°43' W 091°03'3 2.5
2016-Mar-04 08:13N 32°41' W 091°06'2 3.8
2016-Mar-04 07:33N 32°40' W 091°08'3 3.3
2016-Mar-04 06:33N 32°36' W 091°09'3 3.4
2016-Mar-04 05:33N 32°34' W 091°06'4 4.2
2016-Mar-04 04:33N 32°30' W 091°07'4 3.6
2016-Mar-04 03:33N 32°27' W 091°04'4 3.7
2016-Mar-04 02:33N 32°25' W 091°00'4 3.6
2016-Mar-04 01:33N 32°22' W 091°00'4 3.9
2016-Mar-04 00:33N 32°21' W 090°56'3 2.8
2016-Mar-03 23:33N 32°18' W 090°55'3 3.4
2016-Mar-03 22:33N 32°16' W 090°58'4 3.9
2016-Mar-03 21:33N 32°12' W 090°59'4 3.6
2016-Mar-03 20:33N 32°08' W 091°00'4 3.2
2016-Mar-03 19:12N 32°08' W 091°05'2 2.9
2016-Mar-03 18:33N 32°06' W 091°06'4 3.9
2016-Mar-03 17:33N 32°03' W 091°04'8 3.9
2016-Mar-03 15:27N 31°58' W 091°11'  
2016-Feb-27 00:15N 32°07' W 091°01'6 7.6
2016-Feb-26 23:31N 32°13' W 090°59'7 7.1
2016-Feb-26 22:33N 32°18' W 090°55'7 6.6
2016-Feb-26 21:33N 32°24' W 090°59'7 6.9
2016-Feb-26 20:33N 32°28' W 091°06'7 6.6
2016-Feb-26 19:33N 32°34' W 091°07'  

Dump ship's entire track history